Time;durP1;ratioP1;P1;durP2;ratioP2;P2;SDS_P1;SDS_P2;PMS_P1;PMS_P2;Temp;Humidity;BMP_temperature;BMP_pressure;BME280_temperature;BME280_humidity;BME280_pressure;Samples;Min_cycle;Max_cycle;Signal;HPM_P1;HPM_P2
2022/07/05 00:00:22;;;;;;;3.33;0.63;;;22.20;89.60;;;;;;4128199;28;20073;-51
2022/07/05 00:02:43;;;;;;;3.80;0.90;;;22.00;89.30;;;;;;4111906;28;20053;-50
2022/07/05 00:05:04;;;;;;;2.28;0.70;;;21.90;89.80;;;;;;4123457;28;20560;-50
2022/07/05 00:07:25;;;;;;;1.83;0.50;;;22.00;89.90;;;;;;4131789;28;20060;-50
2022/07/05 00:09:50;;;;;;;3.45;0.88;;;21.90;90.40;;;;;;4144078;28;20421;-51
2022/07/05 00:12:13;;;;;;;5.65;0.70;;;22.00;90.70;;;;;;4124095;28;20058;-48
2022/07/05 00:14:33;;;;;;;5.13;1.05;;;21.90;91.00;;;;;;4127530;28;20100;-50
2022/07/05 00:16:54;;;;;;;3.50;0.88;;;21.80;91.20;;;;;;4128313;28;20140;-51
2022/07/05 00:19:15;;;;;;;3.25;0.93;;;21.80;91.50;;;;;;4144294;28;20089;-50
2022/07/05 00:21:36;;;;;;;4.32;0.77;;;21.80;91.60;;;;;;4127937;28;20048;-51
2022/07/05 00:23:57;;;;;;;1.75;0.70;;;21.40;92.30;;;;;;4127662;28;20052;-50
2022/07/05 00:26:18;;;;;;;3.92;0.68;;;21.40;92.60;;;;;;4128243;28;20052;-51
2022/07/05 00:28:38;;;;;;;3.05;0.70;;;21.50;92.50;;;;;;4127797;28;20097;-49
2022/07/05 00:30:59;;;;;;;5.13;0.60;;;21.40;92.20;;;;;;4127798;28;20054;-50
2022/07/05 00:33:19;;;;;;;2.45;1.23;;;21.40;92.40;;;;;;4127507;28;20288;-48
2022/07/05 00:35:40;;;;;;;6.88;0.70;;;21.20;92.90;;;;;;4127819;28;20465;-50
2022/07/05 00:38:01;;;;;;;2.20;0.70;;;21.00;93.60;;;;;;4127891;28;20056;-49
2022/07/05 00:40:23;;;;;;;6.88;0.80;;;20.90;94.10;;;;;;4127720;28;20081;-50
2022/07/05 00:42:44;;;;;;;4.57;0.90;;;20.80;94.50;;;;;;4127356;28;20052;-50
2022/07/05 00:45:06;;;;;;;3.10;0.60;;;20.70;94.60;;;;;;4143999;28;20460;-51
2022/07/05 00:47:27;;;;;;;2.25;0.85;;;20.60;95.10;;;;;;4111652;28;20057;-51
2022/07/05 00:49:47;;;;;;;4.43;0.63;;;20.70;95.50;;;;;;4129192;28;20417;-50
2022/07/05 00:52:10;;;;;;;4.50;0.88;;;20.60;94.90;;;;;;4136697;28;20130;-51
2022/07/05 00:54:40;;;;;;;4.32;0.70;;;20.50;95.50;;;;;;4127629;28;20839;-50
2022/07/05 00:57:02;;;;;;;9.07;1.10;;;20.50;95.90;;;;;;4127443;28;20085;-50
2022/07/05 00:59:22;;;;;;;0.98;0.70;;;20.60;95.80;;;;;;4126307;28;20057;-50
2022/07/05 01:01:43;;;;;;;7.78;1.50;;;20.70;95.50;;;;;;4127482;28;20117;-51
2022/07/05 01:04:04;;;;;;;6.82;1.23;;;20.50;96.10;;;;;;4127653;28;20054;-50
2022/07/05 01:06:25;;;;;;;5.68;0.70;;;20.40;96.50;;;;;;4111302;28;20089;-49
2022/07/05 01:08:46;;;;;;;7.25;1.02;;;20.30;97.20;;;;;;4131115;28;20101;-51
2022/07/05 01:11:09;;;;;;;3.95;1.10;;;20.20;98.10;;;;;;4127622;28;20544;-50
2022/07/05 01:13:30;;;;;;;;;;;20.50;97.30;;;;;;4127788;28;20422;-50
2022/07/05 01:15:51;;;;;;;7.00;0.77;;;20.60;97.30;;;;;;4111011;28;19969;-47
2022/07/05 01:18:12;;;;;;;3.42;0.60;;;20.60;97.00;;;;;;4124943;28;20053;-50
2022/07/05 01:20:32;;;;;;;4.40;0.70;;;20.70;97.30;;;;;;4127237;28;20097;-50
2022/07/05 01:22:59;;;;;;;5.88;0.80;;;20.70;96.90;;;;;;4127286;28;20108;-50
2022/07/05 01:25:25;;;;;;;0.80;0.70;;;20.60;97.40;;;;;;4128664;28;20077;-49
2022/07/05 01:27:48;;;;;;;5.78;0.70;;;20.30;97.90;;;;;;4130322;28;20425;-59
2022/07/05 01:30:09;;;;;;;6.25;0.80;;;20.10;98.70;;;;;;4130243;28;20455;-49
2022/07/05 01:32:30;;;;;;;7.25;0.93;;;19.90;99.10;;;;;;4130225;28;20137;-49
2022/07/05 01:34:50;;;;;;;4.28;0.90;;;19.80;99.50;;;;;;4129731;28;20073;-49
2022/07/05 01:37:11;;;;;;;4.35;1.17;;;19.80;99.70;;;;;;4129904;28;20133;-50
2022/07/05 01:41:56;;;;;;;1.17;0.80;;;19.90;99.90;;;;;;2929588;23;20413;-86
2022/07/05 01:44:16;;;;;;;1.40;0.70;;;19.80;99.90;;;;;;4134359;28;20570;-86
2022/07/05 01:46:39;;;;;;;7.45;0.80;;;19.70;99.90;;;;;;4134486;28;20100;-85
2022/07/05 01:49:05;;;;;;;3.08;0.70;;;19.60;99.90;;;;;;4148620;28;20500;-86
2022/07/05 01:51:34;;;;;;;5.82;1.02;;;19.50;99.90;;;;;;4118612;28;20098;-86
2022/07/05 01:53:54;;;;;;;1.30;0.77;;;19.40;99.90;;;;;;4132794;28;20062;-86
2022/07/05 01:56:15;;;;;;;8.18;0.90;;;19.40;99.90;;;;;;4126898;28;20735;-85
2022/07/05 01:58:36;;;;;;;2.10;0.80;;;19.40;99.90;;;;;;4118475;28;20112;-86
2022/07/05 02:00:58;;;;;;;4.97;0.90;;;19.40;99.90;;;;;;4131833;28;20084;-86
2022/07/05 02:03:22;;;;;;;2.25;0.77;;;19.40;99.90;;;;;;4145834;28;20125;-85
2022/07/05 02:06:02;;;;;;;1.98;0.88;;;19.60;99.90;;;;;;4136975;28;20528;-85
2022/07/05 02:08:29;;;;;;;3.08;1.15;;;19.70;99.90;;;;;;4146414;28;20083;-85
2022/07/05 02:10:51;;;;;;;3.75;0.98;;;19.60;99.90;;;;;;4132682;28;20130;-86
2022/07/05 02:13:12;;;;;;;3.55;0.80;;;19.70;99.90;;;;;;4133628;28;20085;-86
2022/07/05 02:15:34;;;;;;;2.38;0.90;;;19.80;99.90;;;;;;4134088;28;20901;-85
2022/07/05 02:17:57;;;;;;;5.50;1.30;;;19.70;99.90;;;;;;4143021;28;20133;-85
2022/07/05 02:20:18;;;;;;;1.65;0.70;;;19.70;99.90;;;;;;4149794;28;20316;-86
2022/07/05 02:22:39;;;;;;;1.65;0.80;;;19.60;99.90;;;;;;4149874;28;20614;-85
2022/07/05 02:25:02;;;;;;;5.30;0.88;;;19.60;99.90;;;;;;4133483;28;20071;-85
2022/07/05 02:27:24;;;;;;;4.65;0.80;;;19.60;99.90;;;;;;4148776;28;20103;-86
2022/07/05 02:29:44;;;;;;;4.40;0.80;;;19.40;99.90;;;;;;4133699;28;20509;-85
2022/07/05 02:32:07;;;;;;;3.70;0.80;;;19.40;99.90;;;;;;4133835;28;20064;-86
2022/07/05 02:34:28;;;;;;;1.52;0.90;;;19.30;99.90;;;;;;4133601;28;20103;-85
2022/07/05 02:36:49;;;;;;;3.58;0.85;;;19.40;99.90;;;;;;4148101;28;20084;-85
2022/07/05 02:39:09;;;;;;;3.90;0.90;;;19.40;99.90;;;;;;4148206;28;20052;-86
2022/07/05 02:41:30;;;;;;;5.00;0.90;;;19.40;99.90;;;;;;4148304;28;20065;-85
2022/07/05 02:43:52;;;;;;;3.03;1.00;;;19.30;99.90;;;;;;4151842;28;20052;-86
2022/07/05 02:46:13;;;;;;;1.23;0.80;;;19.30;99.90;;;;;;4148487;28;20405;-85
2022/07/05 02:48:37;;;;;;;4.47;0.80;;;19.30;99.90;;;;;;4132198;28;20080;-85
2022/07/05 02:51:00;;;;;;;6.40;1.25;;;19.20;99.90;;;;;;4143618;28;20092;-86
2022/07/05 02:53:22;;;;;;;;;;;19.10;99.90;;;;;;4133313;28;20113;-85
2022/07/05 02:55:42;;;;;;;1.50;1.00;;;19.00;99.90;;;;;;4148327;28;20013;-85
2022/07/05 02:58:04;;;;;;;6.90;0.95;;;19.00;99.90;;;;;;4131815;28;20057;-85
2022/07/05 03:00:24;;;;;;;4.10;0.90;;;19.20;99.90;;;;;;4142490;28;20730;-85
2022/07/05 03:02:45;;;;;;;4.43;1.00;;;19.30;99.90;;;;;;4133272;28;20499;-86
2022/07/05 03:05:07;;;;;;;6.57;0.80;;;19.10;99.90;;;;;;4133120;28;20080;-85
2022/07/05 03:07:29;;;;;;;2.63;1.35;;;19.00;99.90;;;;;;4131770;28;20088;-85
2022/07/05 03:10:13;;;;;;;1.23;0.90;;;19.00;99.90;;;;;;4130604;28;20211;-85
2022/07/05 03:12:34;;;;;;;3.60;0.70;;;19.00;99.90;;;;;;4081561;29;20567;-85
2022/07/05 03:14:54;;;;;;;3.15;1.00;;;18.80;99.90;;;;;;4082036;29;20682;-85
2022/07/05 03:17:15;;;;;;;2.30;0.80;;;19.00;99.90;;;;;;4073086;29;20073;-85
2022/07/05 03:20:02;;;;;;;1.05;0.70;;;19.10;99.90;;;;;;4073294;29;20055;-85
2022/07/05 03:22:25;;;;;;;1.45;0.73;;;18.90;99.90;;;;;;4034601;29;20065;-85
2022/07/05 03:25:11;;;;;;;1.42;0.70;;;18.80;99.90;;;;;;4034199;29;20055;-85
2022/07/05 03:27:34;;;;;;;3.72;1.02;;;18.80;99.90;;;;;;3989624;29;20137;-86
2022/07/05 03:29:55;;;;;;;;;;;18.70;99.90;;;;;;3989589;29;20089;-85
2022/07/05 03:32:42;;;;;;;5.78;1.10;;;18.80;99.90;;;;;;4003871;29;20057;-85
2022/07/05 03:35:04;;;;;;;4.93;1.30;;;18.70;99.90;;;;;;4003905;29;20060;-85
2022/07/05 03:37:26;;;;;;;4.10;1.00;;;18.50;99.90;;;;;;4003915;29;20180;-86
2022/07/05 03:39:47;;;;;;;6.15;1.05;;;18.40;99.90;;;;;;3989253;29;20307;-85
2022/07/05 03:42:08;;;;;;;3.25;0.90;;;18.20;99.90;;;;;;4000394;29;20061;-85
2022/07/05 03:44:32;;;;;;;5.18;1.02;;;18.10;99.90;;;;;;3998513;29;20061;-86
2022/07/05 03:46:53;;;;;;;4.25;1.02;;;18.00;99.90;;;;;;3988918;29;20175;-85
2022/07/05 03:49:14;;;;;;;3.65;1.48;;;18.00;99.90;;;;;;4015170;29;20092;-85
2022/07/05 03:51:36;;;;;;;5.82;1.40;;;18.00;99.90;;;;;;4025394;29;20197;-85
2022/07/05 03:53:59;;;;;;;2.33;0.90;;;18.10;99.90;;;;;;4034428;29;20190;-85
2022/07/05 03:56:22;;;;;;;;;;;18.20;99.90;;;;;;4034938;29;20477;-85
2022/07/05 03:59:10;;;;;;;5.70;1.42;;;18.10;99.90;;;;;;4022634;29;19931;-85
2022/07/05 04:01:32;;;;;;;6.75;0.90;;;18.10;99.90;;;;;;3972249;29;20439;-85
2022/07/05 04:03:53;;;;;;;2.05;0.90;;;18.10;99.90;;;;;;3981211;29;20703;-85
2022/07/05 04:06:14;;;;;;;2.75;1.33;;;18.00;99.90;;;;;;4002936;29;20060;-85
2022/07/05 04:08:36;;;;;;;5.68;1.00;;;18.00;99.90;;;;;;4001325;29;20062;-85
2022/07/05 04:10:56;;;;;;;2.58;1.10;;;17.90;99.90;;;;;;4003506;29;20106;-85
2022/07/05 04:13:17;;;;;;;5.15;1.88;;;17.90;99.90;;;;;;4033944;29;20085;-85
2022/07/05 04:16:04;;;;;;;4.45;1.15;;;17.80;99.90;;;;;;4034399;29;20197;-85
2022/07/05 04:18:26;;;;;;;1.67;0.85;;;17.80;99.90;;;;;;4020303;29;20202;-85
2022/07/05 04:20:48;;;;;;;3.33;0.90;;;17.80;99.90;;;;;;4034238;29;20142;-85
2022/07/05 04:23:08;;;;;;;5.50;1.00;;;17.80;99.90;;;;;;4034188;29;20064;-85
2022/07/05 04:25:29;;;;;;;3.75;0.90;;;17.80;99.90;;;;;;4033982;29;20072;-85
2022/07/05 04:27:54;;;;;;;5.85;1.15;;;18.00;99.90;;;;;;4034206;29;20137;-85
2022/07/05 04:30:15;;;;;;;1.35;0.80;;;18.20;99.90;;;;;;4034513;29;20095;-85
2022/07/05 04:32:37;;;;;;;7.20;1.47;;;18.20;99.90;;;;;;4031706;29;20651;-85
2022/07/05 04:34:59;;;;;;;5.30;1.08;;;18.30;99.90;;;;;;4031103;29;20055;-85
2022/07/05 04:37:46;;;;;;;6.20;1.75;;;18.30;99.90;;;;;;4033566;29;20059;-85
2022/07/05 04:40:11;;;;;;;5.80;1.10;;;18.40;99.90;;;;;;4071758;29;20074;-86
2022/07/05 04:42:32;;;;;;;3.25;1.10;;;18.50;99.90;;;;;;4069685;29;20108;-86
2022/07/05 04:44:53;;;;;;;6.00;0.95;;;18.50;99.90;;;;;;4065284;29;20214;-85
2022/07/05 04:47:14;;;;;;;4.57;1.33;;;18.50;99.90;;;;;;4064895;29;20063;-85
2022/07/05 04:49:37;;;;;;;2.58;0.90;;;18.50;99.90;;;;;;4051701;29;21008;-85
2022/07/05 04:51:58;;;;;;;3.42;1.08;;;18.40;99.90;;;;;;4064723;29;20051;-85
2022/07/05 04:54:20;;;;;;;4.15;1.10;;;18.50;99.90;;;;;;4065293;29;20156;-85
2022/07/05 04:56:42;;;;;;;2.35;1.00;;;18.70;99.90;;;;;;4066979;29;20099;-85
2022/07/05 04:59:02;;;;;;;4.03;1.13;;;18.80;99.90;;;;;;4065854;29;20587;-85
2022/07/05 05:01:23;;;;;;;7.78;1.10;;;18.80;99.90;;;;;;4062675;29;20613;-85
2022/07/05 05:03:44;;;;;;;7.57;0.90;;;18.90;99.90;;;;;;4083229;29;20464;-85
2022/07/05 05:06:32;;;;;;;3.55;0.80;;;18.90;99.90;;;;;;4083574;29;20070;-85
2022/07/05 05:08:52;;;;;;;5.78;1.30;;;19.00;99.90;;;;;;4038869;29;20055;-85
2022/07/05 05:11:13;;;;;;;2.35;1.35;;;19.00;99.90;;;;;;4062318;29;20099;-85
2022/07/05 05:13:34;;;;;;;5.55;1.23;;;18.90;99.90;;;;;;4067759;29;20134;-85
2022/07/05 05:15:56;;;;;;;7.60;1.33;;;18.90;99.90;;;;;;4067444;29;20055;-85
2022/07/05 05:18:18;;;;;;;7.07;1.48;;;19.10;99.90;;;;;;4126789;28;20049;-85
2022/07/05 05:20:40;;;;;;;3.65;1.58;;;19.10;99.90;;;;;;4121543;28;20126;-85
2022/07/05 05:23:27;;;;;;;5.35;1.75;;;19.10;99.90;;;;;;4101929;28;20058;-83
2022/07/05 05:25:49;;;;;;;3.33;0.80;;;19.20;99.90;;;;;;4070716;29;20055;-83
2022/07/05 05:28:10;;;;;;;1.30;1.20;;;19.20;99.90;;;;;;4068697;29;20192;-84
2022/07/05 05:30:31;;;;;;;8.60;1.60;;;19.20;99.90;;;;;;4083764;29;20135;-84
2022/07/05 05:33:19;;;;;;;1.20;1.10;;;19.20;99.90;;;;;;4083795;29;20054;-84
2022/07/05 05:35:48;;;;;;;3.53;0.90;;;19.20;99.90;;;;;;4017538;29;20081;-83
2022/07/05 05:38:09;;;;;;;3.45;0.80;;;19.30;99.90;;;;;;4036980;29;20533;-84
2022/07/05 05:40:33;;;;;;;6.78;0.93;;;19.50;99.90;;;;;;4037175;29;20093;-83
2022/07/05 05:42:56;;;;;;;4.65;1.00;;;19.60;99.90;;;;;;4036710;29;20052;-84
2022/07/05 05:45:19;;;;;;;4.78;0.80;;;19.70;99.90;;;;;;4028207;29;20581;-84
2022/07/05 05:47:47;;;;;;;4.82;0.98;;;19.70;99.90;;;;;;4051274;29;20753;-85
2022/07/05 05:50:09;;;;;;;4.07;0.90;;;19.90;99.90;;;;;;4052676;29;20124;-84
2022/07/05 05:52:31;;;;;;;1.83;0.88;;;19.90;99.90;;;;;;4052099;29;20059;-85
2022/07/05 05:54:53;;;;;;;1.35;1.20;;;19.90;99.90;;;;;;4050214;29;20055;-85
2022/07/05 05:57:16;;;;;;;2.30;0.80;;;20.00;99.90;;;;;;4036675;29;20243;-85
2022/07/05 05:59:38;;;;;;;3.17;0.80;;;20.10;99.90;;;;;;4051301;29;20148;-85
2022/07/05 06:01:59;;;;;;;2.67;0.90;;;20.20;99.90;;;;;;4041229;29;20109;-85
2022/07/05 06:04:22;;;;;;;5.65;1.20;;;20.40;99.90;;;;;;4068143;29;20055;-85
2022/07/05 06:06:42;;;;;;;15.50;2.25;;;20.40;99.90;;;;;;4067816;29;20059;-85
2022/07/05 06:09:30;;;;;;;6.82;0.88;;;20.50;99.90;;;;;;4067765;29;20139;-85
2022/07/05 06:12:17;;;;;;;5.63;1.13;;;20.80;99.90;;;;;;4057913;29;20111;-85
2022/07/05 06:14:39;;;;;;;3.03;0.80;;;21.00;99.90;;;;;;4061947;29;20152;-85
2022/07/05 06:17:01;;;;;;;;;;;21.10;99.90;;;;;;4070953;29;20136;-85
2022/07/05 06:19:22;;;;;;;1.15;0.80;;;21.40;99.90;;;;;;4083239;29;19929;-86
2022/07/05 06:21:44;;;;;;;5.97;1.05;;;21.40;99.90;;;;;;4083334;29;20062;-86
2022/07/05 06:24:05;;;;;;;11.98;0.80;;;21.50;99.90;;;;;;4076707;29;20058;-85
2022/07/05 06:26:53;;;;;;;5.15;0.80;;;21.80;99.90;;;;;;4067723;29;20181;-85
2022/07/05 06:29:15;;;;;;;2.33;0.80;;;22.20;99.90;;;;;;4054152;29;20438;-85
2022/07/05 06:32:10;;;;;;;6.45;1.55;;;22.20;99.90;;;;;;4067477;29;20599;-85
2022/07/05 06:34:57;;;;;;;2.40;1.05;;;22.30;99.90;;;;;;4036006;29;20515;-85
2022/07/05 06:37:17;;;;;;;2.95;0.73;;;22.50;99.90;;;;;;3992122;29;20054;-85
2022/07/05 06:40:09;;;;;;;7.35;1.05;;;22.60;99.90;;;;;;3989250;29;20053;-85
2022/07/05 06:42:28;;;;;;;1.55;0.70;;;22.60;99.90;;;;;;3960994;29;20051;-85
2022/07/05 06:45:17;;;;;;;1.83;0.70;;;22.70;99.90;;;;;;3949828;29;20081;-85
2022/07/05 06:47:39;;;;;;;2.08;0.70;;;22.90;99.90;;;;;;3889784;30;20060;-85
2022/07/05 06:49:59;;;;;;;2.92;0.80;;;23.20;99.90;;;;;;3880084;30;20484;-85
2022/07/05 06:52:21;;;;;;;0.88;0.60;;;23.30;99.90;;;;;;3885406;30;20088;-85
2022/07/05 06:54:40;;;;;;;1.40;0.70;;;23.60;99.90;;;;;;3861080;30;20052;-85
2022/07/05 06:57:01;;;;;;;2.38;0.63;;;24.30;99.90;;;;;;3886180;30;20115;-85
2022/07/05 06:59:22;;;;;;;3.67;0.70;;;24.30;99.90;;;;;;3885240;30;20060;-85
2022/07/05 07:01:43;;;;;;;0.95;0.60;;;24.60;99.90;;;;;;3861973;30;20093;-85
2022/07/05 07:04:30;;;;;;;3.10;0.60;;;24.50;99.90;;;;;;3875011;30;20616;-85
2022/07/05 07:06:49;;;;;;;2.28;0.70;;;24.70;99.90;;;;;;3847959;30;20074;-85
2022/07/05 07:09:18;;;;;;;0.77;0.50;;;24.70;99.90;;;;;;3861252;30;20148;-86
2022/07/05 07:11:52;;;;;;;6.18;0.70;;;24.80;99.90;;;;;;3897996;30;20064;-86
2022/07/05 07:14:27;;;;;;;6.82;0.60;;;25.10;98.90;;;;;;3939347;30;20200;-86
2022/07/05 07:16:47;;;;;;;6.65;0.60;;;25.80;98.70;;;;;;3956701;29;20499;-86
2022/07/05 07:19:08;;;;;;;5.47;1.48;;;26.00;98.20;;;;;;3998881;29;20133;-86
2022/07/05 07:21:33;;;;;;;6.18;0.70;;;26.40;97.80;;;;;;4016964;29;20492;-86
2022/07/05 07:23:53;;;;;;;5.32;0.68;;;26.40;98.10;;;;;;4051443;29;20138;-86
2022/07/05 07:26:14;;;;;;;3.20;0.60;;;26.90;95.90;;;;;;4095140;29;20058;-86
2022/07/05 07:28:35;;;;;;;2.83;0.70;;;26.90;96.70;;;;;;4084356;29;20058;-85
2022/07/05 07:30:56;;;;;;;1.93;0.60;;;26.90;95.90;;;;;;4081953;29;20131;-85
2022/07/05 07:33:18;;;;;;;7.85;0.57;;;26.80;96.40;;;;;;4082420;29;20334;-86
2022/07/05 07:35:59;;;;;;;4.07;0.70;;;26.90;96.90;;;;;;4082057;29;20415;-85
2022/07/05 07:38:20;;;;;;;2.38;0.55;;;27.30;96.80;;;;;;4068259;29;20111;-85
2022/07/05 07:41:17;;;;;;;2.35;0.60;;;27.20;96.00;;;;;;4089093;29;20151;-85
2022/07/05 07:43:37;;;;;;;2.63;0.60;;;27.20;94.40;;;;;;4107472;28;20482;-85
2022/07/05 07:45:58;;;;;;;3.45;0.55;;;27.60;94.80;;;;;;4100178;28;20119;-85
2022/07/05 07:48:46;;;;;;;6.57;0.52;;;27.70;94.10;;;;;;4113657;28;20581;-86
2022/07/05 07:51:06;;;;;;;5.28;0.70;;;27.50;95.50;;;;;;4066447;29;20075;-86
2022/07/05 07:53:27;;;;;;;1.70;0.60;;;27.80;94.20;;;;;;4052911;29;20613;-85
2022/07/05 07:55:48;;;;;;;2.90;0.70;;;27.70;92.80;;;;;;4066589;29;20055;-85
2022/07/05 07:58:09;;;;;;;5.50;1.27;;;27.70;93.40;;;;;;4053042;29;20063;-86
2022/07/05 08:01:05;;;;;;;5.25;0.70;;;28.10;94.10;;;;;;4066421;29;20135;-85
2022/07/05 08:03:26;;;;;;;2.65;0.90;;;28.50;94.20;;;;;;4050234;29;20136;-86
2022/07/05 08:05:48;;;;;;;5.45;0.88;;;28.70;92.70;;;;;;4033920;29;20114;-86
2022/07/05 08:08:35;;;;;;;0.90;0.75;;;28.90;93.30;;;;;;4035493;29;20107;-86
2022/07/05 08:10:55;;;;;;;0.57;0.40;;;28.50;92.20;;;;;;4020015;29;20414;-86
2022/07/05 08:13:16;;;;;;;3.00;0.50;;;28.40;92.50;;;;;;4021209;29;20148;-87
2022/07/05 08:16:04;;;;;;;3.08;0.70;;;28.40;91.80;;;;;;4014523;29;20141;-86
2022/07/05 08:22:04;;;;;;;1.60;0.50;;;28.90;92.10;;;;;;3903488;30;20435;-86
2022/07/05 08:24:25;;;;;;;3.72;0.50;;;28.80;91.70;;;;;;3903039;30;20814;-86
2022/07/05 08:26:46;;;;;;;4.63;0.60;;;28.90;92.60;;;;;;3891225;30;20060;-86
2022/07/05 08:29:31;;;;;;;3.75;0.60;;;28.70;91.10;;;;;;3965868;29;20142;-86
2022/07/05 08:32:21;;;;;;;4.85;0.50;;;28.80;93.40;;;;;;3924678;30;20140;-86
2022/07/05 08:35:07;;;;;;;7.10;0.70;;;29.50;92.10;;;;;;3922013;30;20047;-86
2022/07/05 08:37:21;;;;;;;2.20;0.75;;;29.30;91.40;;;;;;4190403;28;20398;-47
2022/07/05 08:39:42;;;;;;;8.50;0.57;;;28.90;90.50;;;;;;4175486;28;20060;-47
2022/07/05 08:42:04;;;;;;;2.95;0.57;;;29.00;91.00;;;;;;4175280;28;20474;-45
2022/07/05 08:44:27;;;;;;;5.73;0.80;;;29.20;90.20;;;;;;4169789;28;20115;-46
2022/07/05 08:46:51;;;;;;;2.80;0.50;;;29.30;88.50;;;;;;4158662;28;20743;-46
2022/07/05 08:49:14;;;;;;;4.75;0.50;;;29.40;90.20;;;;;;4175126;28;20064;-45
2022/07/05 08:51:40;;;;;;;5.38;0.60;;;29.60;89.70;;;;;;4174964;28;20056;-46
2022/07/05 08:54:02;;;;;;;5.20;0.60;;;29.80;88.50;;;;;;4166775;28;20582;-45
2022/07/05 08:56:23;;;;;;;3.08;0.68;;;29.50;87.70;;;;;;4158420;28;20060;-47
2022/07/05 08:59:04;;;;;;;1.77;0.50;;;29.50;87.20;;;;;;4174894;28;20099;-46
2022/07/05 09:01:25;;;;;;;6.65;1.27;;;29.40;85.90;;;;;;4174738;28;20474;-46
2022/07/05 09:03:51;;;;;;;3.30;0.45;;;29.60;87.70;;;;;;4174958;28;20040;-44
2022/07/05 09:06:15;;;;;;;1.70;0.40;;;29.80;88.40;;;;;;4174721;28;20084;-44
2022/07/05 09:08:40;;;;;;;3.85;0.40;;;30.10;89.00;;;;;;4174778;28;20140;-43
2022/07/05 09:11:02;;;;;;;3.28;0.60;;;30.00;84.40;;;;;;4162139;28;20165;-43
2022/07/05 09:13:23;;;;;;;;;;;30.00;86.90;;;;;;4175176;28;20052;-44
2022/07/05 09:15:44;;;;;;;6.95;0.50;;;30.30;86.50;;;;;;4174358;28;20374;-44
2022/07/05 09:18:05;;;;;;;2.60;0.43;;;30.40;85.00;;;;;;4174226;28;20100;-43
2022/07/05 09:20:27;;;;;;;7.22;0.50;;;30.50;85.20;;;;;;4174380;28;20522;-42
2022/07/05 09:22:52;;;;;;;1.90;0.40;;;30.60;84.80;;;;;;4174571;28;20087;-44
2022/07/05 09:25:30;;;;;;;2.83;0.30;;;30.50;82.10;;;;;;4174996;28;20503;-44
2022/07/05 09:27:59;;;;;;;2.30;0.50;;;30.70;85.00;;;;;;4174714;28;20269;-45
2022/07/05 09:30:41;;;;;;;4.95;0.47;;;30.70;83.70;;;;;;4174400;28;20098;-44
2022/07/05 09:33:17;;;;;;;1.70;0.40;;;31.10;84.40;;;;;;4174212;28;20570;-45
2022/07/05 09:35:39;;;;;;;7.20;1.85;;;30.70;81.10;;;;;;4174025;28;20072;-44
2022/07/05 09:38:03;;;;;;;2.80;0.60;;;31.10;82.00;;;;;;4174580;28;20091;-42
2022/07/05 09:40:24;;;;;;;1.60;0.40;;;31.10;82.50;;;;;;4174059;28;20128;-44
2022/07/05 09:42:45;;;;;;;1.67;0.40;;;31.20;81.90;;;;;;4174280;28;20142;-43
2022/07/05 09:45:23;;;;;;;0.90;0.43;;;31.50;81.10;;;;;;4173869;28;20044;-46
2022/07/05 09:47:44;;;;;;;1.63;0.30;;;31.50;80.60;;;;;;4168870;28;20063;-43
2022/07/05 09:50:07;;;;;;;5.65;0.63;;;31.80;78.50;;;;;;4162892;28;20072;-44
2022/07/05 09:52:35;;;;;;;0.75;0.40;;;31.70;78.70;;;;;;4162823;28;20076;-43
2022/07/05 09:55:16;;;;;;;4.10;0.40;;;31.40;76.50;;;;;;4163078;28;20059;-44
2022/07/05 09:57:41;;;;;;;1.88;0.40;;;32.00;76.10;;;;;;4162891;28;20147;-45
2022/07/05 10:00:05;;;;;;;1.95;0.60;;;32.30;76.80;;;;;;4163040;28;20059;-44
2022/07/05 10:02:48;;;;;;;1.60;0.50;;;32.50;78.70;;;;;;4146769;28;20052;-44
2022/07/05 10:05:22;;;;;;;6.70;0.50;;;32.40;75.10;;;;;;4161588;28;20048;-45
2022/07/05 10:07:45;;;;;;;9.80;0.50;;;32.50;79.00;;;;;;4162749;28;20061;-44
2022/07/05 10:10:14;;;;;;;1.15;0.40;;;32.70;78.30;;;;;;4162912;28;20059;-44
2022/07/05 10:12:36;;;;;;;2.63;0.40;;;32.70;73.50;;;;;;4162639;28;20137;-45
2022/07/05 10:14:59;;;;;;;2.15;0.35;;;32.50;73.90;;;;;;4146449;28;20061;-42
2022/07/05 10:17:20;;;;;;;2.25;0.50;;;32.40;74.50;;;;;;4155864;28;20096;-43
2022/07/05 10:19:45;;;;;;;7.40;0.50;;;32.80;73.50;;;;;;4162718;28;20451;-43
2022/07/05 10:22:07;;;;;;;2.88;0.40;;;32.70;74.40;;;;;;4162968;28;20057;-44
2022/07/05 10:24:40;;;;;;;4.88;0.40;;;32.70;71.80;;;;;;4146400;28;20128;-43
2022/07/05 10:27:05;;;;;;;1.75;0.40;;;32.30;71.20;;;;;;4157193;28;20137;-44
2022/07/05 10:29:26;;;;;;;2.70;0.50;;;32.50;77.90;;;;;;4158003;28;20149;-44
2022/07/05 10:31:47;;;;;;;5.85;0.50;;;33.30;75.20;;;;;;4146003;28;20536;-43
2022/07/05 10:34:08;;;;;;;12.13;1.25;;;33.20;76.80;;;;;;4144966;28;20072;-44
2022/07/05 10:36:49;;;;;;;2.88;0.60;;;33.10;75.40;;;;;;4159958;28;20060;-44
2022/07/05 10:39:10;;;;;;;4.10;0.50;;;33.10;75.30;;;;;;4162508;28;20048;-44
2022/07/05 10:41:32;;;;;;;2.77;0.40;;;32.90;76.00;;;;;;4162188;28;20095;-43
2022/07/05 10:43:55;;;;;;;2.97;0.63;;;32.80;76.30;;;;;;4155416;28;20519;-45
2022/07/05 10:46:32;;;;;;;3.33;0.40;;;32.70;74.50;;;;;;4161838;28;20056;-45
2022/07/05 10:49:17;;;;;;;5.78;0.40;;;32.90;76.90;;;;;;4159037;28;20052;-43
2022/07/05 10:51:38;;;;;;;4.93;1.17;;;33.00;73.40;;;;;;4149140;28;20141;-45
2022/07/05 10:53:59;;;;;;;5.90;0.50;;;32.90;73.60;;;;;;4161908;28;20060;-44
2022/07/05 10:56:19;;;;;;;3.75;0.70;;;33.20;74.50;;;;;;4162009;28;20502;-44
2022/07/05 10:58:48;;;;;;;6.28;0.55;;;33.10;74.60;;;;;;4162444;28;20052;-44
2022/07/05 11:01:12;;;;;;;2.72;0.30;;;33.10;77.50;;;;;;4158993;28;20093;-43
2022/07/05 11:03:35;;;;;;;5.72;0.50;;;33.30;73.10;;;;;;4156081;28;20104;-43
2022/07/05 11:05:55;;;;;;;5.57;0.47;;;33.40;76.70;;;;;;4159949;28;20047;-43
2022/07/05 11:08:16;;;;;;;3.88;0.40;;;33.60;75.10;;;;;;4159960;28;20091;-44
2022/07/05 11:11:11;;;;;;;5.60;1.17;;;33.40;77.20;;;;;;4161281;28;20084;-46
2022/07/05 11:13:46;;;;;;;2.47;0.47;;;33.80;76.40;;;;;;4145558;28;20080;-44
2022/07/05 11:16:28;;;;;;;6.13;0.50;;;34.10;77.10;;;;;;4157253;28;20070;-45
2022/07/05 11:18:51;;;;;;;3.78;0.40;;;34.00;73.60;;;;;;4161583;28;20051;-44
2022/07/05 11:21:22;;;;;;;10.18;0.50;;;34.20;74.90;;;;;;4161542;28;20531;-43
2022/07/05 11:23:43;;;;;;;1.30;0.30;;;34.50;72.90;;;;;;4158678;28;20133;-45
2022/07/05 11:26:04;;;;;;;2.97;0.40;;;34.30;75.60;;;;;;4160426;28;20121;-43
2022/07/05 11:28:25;;;;;;;8.73;0.57;;;33.80;73.80;;;;;;4160525;28;20096;-45
2022/07/05 11:30:50;;;;;;;1.77;0.40;;;33.50;73.70;;;;;;4159693;28;20103;-44
2022/07/05 11:33:43;;;;;;;3.92;0.50;;;33.80;77.30;;;;;;4159229;28;20127;-44
2022/07/05 11:36:07;;;;;;;5.95;0.55;;;34.50;74.80;;;;;;4156895;28;20057;-45
2022/07/05 11:38:28;;;;;;;7.28;0.50;;;34.50;74.50;;;;;;4147270;28;20052;-43
2022/07/05 11:41:15;;;;;;;1.98;0.40;;;34.60;72.10;;;;;;4153644;28;20103;-43
2022/07/05 11:43:36;;;;;;;5.88;0.50;;;34.90;71.70;;;;;;4159244;28;20416;-43
2022/07/05 11:45:59;;;;;;;4.60;0.40;;;35.40;71.00;;;;;;4160816;28;20083;-43
2022/07/05 11:48:21;;;;;;;3.60;0.35;;;35.70;69.60;;;;;;4144580;28;20080;-43
2022/07/05 11:50:42;;;;;;;9.02;0.50;;;35.90;72.10;;;;;;4158201;28;20457;-43
2022/07/05 11:53:03;;;;;;;1.17;0.30;;;36.00;71.60;;;;;;4158486;28;20051;-44
2022/07/05 11:55:27;;;;;;;7.65;0.90;;;35.80;69.80;;;;;;4144503;28;20048;-43
2022/07/05 11:57:49;;;;;;;4.93;0.50;;;35.30;69.10;;;;;;4144889;28;20142;-43
2022/07/05 12:00:13;;;;;;;6.43;0.40;;;35.40;71.30;;;;;;4161094;28;20555;-43
2022/07/05 12:02:43;;;;;;;7.85;0.68;;;35.60;69.90;;;;;;4157836;28;20044;-43
2022/07/05 12:05:04;;;;;;;9.77;0.63;;;35.50;70.70;;;;;;4148875;28;20099;-42
2022/07/05 12:07:29;;;;;;;6.47;0.50;;;35.40;69.70;;;;;;4161329;28;20056;-43
2022/07/05 12:12:43;;;;;;;5.00;0.63;;;35.20;70.10;;;;;;4160222;28;20103;-43
2022/07/05 12:15:05;;;;;;;4.50;0.50;;;35.00;70.90;;;;;;4154842;28;20200;-44
2022/07/05 12:17:25;;;;;;;4.13;0.40;;;34.70;71.00;;;;;;4160531;28;20052;-44
2022/07/05 12:19:46;;;;;;;2.93;0.40;;;35.10;69.30;;;;;;4148237;28;20100;-44
2022/07/05 12:22:07;;;;;;;5.20;0.43;;;35.50;70.30;;;;;;4153911;28;20044;-43
2022/07/05 12:24:28;;;;;;;1.93;0.40;;;35.80;70.90;;;;;;4153590;28;20053;-44
2022/07/05 12:26:51;;;;;;;7.85;0.63;;;35.90;71.70;;;;;;4144691;28;20428;-44
2022/07/05 12:29:12;;;;;;;1.25;0.40;;;35.90;70.20;;;;;;4144801;28;20477;-45
2022/07/05 12:32:02;;;;;;;3.78;0.40;;;35.80;70.40;;;;;;4156314;28;20107;-43
2022/07/05 12:34:24;;;;;;;4.47;0.50;;;35.40;69.40;;;;;;4158225;28;20139;-44
2022/07/05 12:36:46;;;;;;;3.90;0.45;;;34.90;70.60;;;;;;4153082;28;20839;-46
2022/07/05 12:39:06;;;;;;;9.10;0.40;;;35.00;71.40;;;;;;4152077;28;20087;-44
2022/07/05 12:41:27;;;;;;;6.95;0.50;;;35.30;70.50;;;;;;4156853;28;20064;-43
2022/07/05 12:43:53;;;;;;;4.28;0.50;;;35.40;69.30;;;;;;4145065;28;20171;-44
2022/07/05 12:46:14;;;;;;;3.95;0.47;;;35.00;69.20;;;;;;4153425;28;20581;-44